Aviation Digital Data Service (ADDS)

Output produced by METARs form (1047 UTC 18 April 2014)
found at http://aviationweather.gov/adds/metars/
 
KLCH 180636Z 1807/1906 VRB05KT P6SM OVC025 
     FM180900 01006KT P6SM BKN015 
     TEMPO 1811/1814 BKN007 
     FM181700 01010G15KT P6SM SCT035 
     FM190000 05004KT P6SM SCT250